Time,TemperatureF,DewpointF,PressureIn,WindDirection,WindDirectionDegrees,WindSpeedMPH,WindSpeedGustMPH,Humidity,HourlyPrecipIn,Conditions,Clouds,dailyrainin,SoftwareType,DateUTC
2013-12-07 00:03:00,40.2,4.3,25.45,NE,43,3.0,4.3,21,0.00,,,0.00,WSDL version 420,2013-12-07 07:03:00,
2013-12-07 00:08:00,40.2,4.7,25.48,NE,39,0.7,3.6,23,0.00,,,0.00,WSDL version 420,2013-12-07 07:08:00,
2013-12-07 00:13:00,40.3,3.9,25.48,NNE,20,2.8,4.7,23,0.00,,,0.00,WSDL version 420,2013-12-07 07:13:00,
2013-12-07 00:18:00,40.0,3.2,25.48,NNE,13,2.9,4.7,21,0.00,,,0.00,WSDL version 420,2013-12-07 07:18:00,
2013-12-07 00:23:00,39.9,3.1,25.45,NNE,20,4.0,5.4,21,0.00,,,0.00,WSDL version 420,2013-12-07 07:23:00,
2013-12-07 00:28:00,39.9,3.1,25.45,NE,40,3.5,5.6,21,0.00,,,0.00,WSDL version 420,2013-12-07 07:28:00,
2013-12-07 00:33:00,39.7,3.0,25.45,NE,48,1.8,5.6,21,0.00,,,0.00,WSDL version 420,2013-12-07 07:33:00,
2013-12-07 00:38:00,-999.0,-99.9,25.45,NNE,30,1.9,4.0,-999,0.00,,,0.00,WSDL version 420,2013-12-07 07:38:00,
2013-12-07 00:43:00,-999.0,-99.9,25.45,North,360,2.0,3.4,-999,0.00,,,0.00,WSDL version 420,2013-12-07 07:43:00,
2013-12-07 00:48:00,-999.0,-99.9,25.45,NNE,23,0.4,3.4,-999,0.00,,,0.00,WSDL version 420,2013-12-07 07:48:00,
2013-12-07 00:53:00,39.7,3.0,25.45,NNW,338,0.2,3.4,21,0.00,,,0.00,WSDL version 420,2013-12-07 07:53:00,
2013-12-07 00:58:00,39.5,3.7,25.45,NNW,332,1.1,2.7,23,0.00,,,0.00,WSDL version 420,2013-12-07 07:58:00,
2013-12-07 01:03:00,38.9,5.2,25.45,NW,315,1.3,3.4,24,0.00,,,0.00,WSDL version 420,2013-12-07 08:03:00,
2013-12-07 01:08:00,-999.0,-99.9,25.45,NW,323,1.6,4.0,-999,0.00,,,0.00,WSDL version 420,2013-12-07 08:08:00,
2013-12-07 01:13:00,-999.0,-99.9,25.45,NNW,333,2.5,4.0,-999,0.00,,,0.00,WSDL version 420,2013-12-07 08:13:00,
2013-12-07 01:18:00,38.7,5.0,25.45,NNE,28,1.6,3.6,24,0.00,,,0.00,WSDL version 420,2013-12-07 08:18:00,
2013-12-07 01:23:00,38.5,4.8,25.45,North,360,2.4,4.0,24,0.00,,,0.00,WSDL version 420,2013-12-07 08:23:00,
2013-12-07 01:28:00,-999.0,-99.9,25.45,NNE,31,4.0,4.9,-999,0.00,,,0.00,WSDL version 420,2013-12-07 08:28:00,
2013-12-07 01:33:00,38.5,6.6,25.45,NNE,28,2.9,5.6,26,0.00,,,0.00,WSDL version 420,2013-12-07 08:33:00,
2013-12-07 01:38:00,-999.0,-99.9,25.45,NE,40,2.4,5.6,-999,0.00,,,0.00,WSDL version 420,2013-12-07 08:38:00,
2013-12-07 01:43:00,-999.0,-99.9,25.45,North,6,2.3,5.4,-999,0.00,,,0.00,WSDL version 420,2013-12-07 08:43:00,
2013-12-07 01:48:00,38.3,5.1,25.45,North,360,2.4,3.4,26,0.00,,,0.00,WSDL version 420,2013-12-07 08:48:00,
2013-12-07 01:53:00,-999.0,-99.9,25.45,North,10,1.6,3.1,-999,0.00,,,0.00,WSDL version 420,2013-12-07 08:53:00,
2013-12-07 01:58:00,-999.0,-99.9,25.45,North,352,2.4,3.1,-999,0.00,,,0.00,WSDL version 420,2013-12-07 08:58:00,
2013-12-07 02:03:00,-999.0,-99.9,25.45,North,360,1.8,3.4,-999,0.00,,,0.00,WSDL version 420,2013-12-07 09:03:00,
2013-12-07 02:08:00,-999.0,-99.9,25.45,North,11,3.2,4.7,-999,0.00,,,0.00,WSDL version 420,2013-12-07 09:08:00,
2013-12-07 02:13:00,-999.0,-99.9,25.45,NNE,13,3.2,5.8,-999,0.00,,,0.00,WSDL version 420,2013-12-07 09:13:00,
2013-12-07 02:18:00,-999.0,-99.9,25.45,NE,37,3.5,5.8,-999,0.00,,,0.00,WSDL version 420,2013-12-07 09:18:00,
2013-12-07 02:23:00,37.4,8.0,25.45,NE,40,3.1,4.9,29,0.00,,,0.00,WSDL version 420,2013-12-07 09:23:00,
2013-12-07 02:28:00,37.4,8.0,25.45,NNE,25,2.4,4.3,29,0.00,,,0.00,WSDL version 420,2013-12-07 09:28:00,
2013-12-07 02:33:00,-999.0,-99.9,25.45,NE,48,1.8,4.0,-999,0.00,,,0.00,WSDL version 420,2013-12-07 09:33:00,
2013-12-07 02:38:00,-999.0,-99.9,25.45,NNE,28,1.4,4.0,-999,0.00,,,0.00,WSDL version 420,2013-12-07 09:38:00,
2013-12-07 02:43:00,-999.0,-99.9,25.45,NE,39,1.0,3.6,-999,0.00,,,0.00,WSDL version 420,2013-12-07 09:43:00,
2013-12-07 02:48:00,-999.0,-99.9,25.45,ENE,70,1.7,3.6,-999,0.00,,,0.00,WSDL version 420,2013-12-07 09:48:00,
2013-12-07 02:53:00,-999.0,-99.9,25.45,ENE,68,1.0,3.4,-999,0.00,,,0.00,WSDL version 420,2013-12-07 09:53:00,
2013-12-07 02:58:00,-999.0,-99.9,25.45,ENE,68,0.8,2.5,-999,0.00,,,0.00,WSDL version 420,2013-12-07 09:58:00,
2013-12-07 03:03:00,-999.0,-99.9,25.45,North,360,0.0,2.5,-999,0.00,,,0.00,WSDL version 420,2013-12-07 10:03:00,
2013-12-07 03:08:00,-999.0,-99.9,25.45,North,360,0.0,0.0,-999,0.00,,,0.00,WSDL version 420,2013-12-07 10:08:00,
2013-12-07 03:13:00,-999.0,-99.9,25.45,North,360,0.0,0.0,-999,0.00,,,0.00,WSDL version 420,2013-12-07 10:13:00,
2013-12-07 03:18:00,-999.0,-99.9,25.45,North,350,1.0,3.4,-999,0.00,,,0.00,WSDL version 420,2013-12-07 10:18:00,
2013-12-07 03:23:00,-999.0,-99.9,25.45,North,5,1.5,3.4,-999,0.00,,,0.00,WSDL version 420,2013-12-07 10:23:00,
2013-12-07 03:28:00,-999.0,-99.9,25.45,NNE,23,1.1,3.4,-999,0.00,,,0.00,WSDL version 420,2013-12-07 10:28:00,
2013-12-07 03:33:00,-999.0,-99.9,25.45,NNE,33,4.3,4.9,-999,0.00,,,0.00,WSDL version 420,2013-12-07 10:33:00,
2013-12-07 03:38:00,-999.0,-99.9,25.45,NNE,17,1.4,5.4,-999,0.00,,,0.00,WSDL version 420,2013-12-07 10:38:00,
2013-12-07 03:43:00,-999.0,-99.9,25.45,NNE,28,3.2,5.4,-999,0.00,,,0.00,WSDL version 420,2013-12-07 10:43:00,
2013-12-07 03:48:00,36.1,9.1,25.45,NE,38,3.8,5.4,32,0.00,,,0.00,WSDL version 420,2013-12-07 10:48:00,
2013-12-07 03:53:00,36.1,8.8,25.43,NE,37,3.9,6.5,32,0.00,,,0.00,WSDL version 420,2013-12-07 10:53:00,
2013-12-07 03:58:00,36.2,9.4,25.43,NE,43,4.1,6.5,33,0.00,,,0.00,WSDL version 420,2013-12-07 10:58:00,
2013-12-07 04:03:00,36.1,10.0,25.43,NE,37,5.0,6.3,33,0.00,,,0.00,WSDL version 420,2013-12-07 11:03:00,
2013-12-07 04:08:00,36.3,10.9,25.45,NNE,25,4.2,7.6,34,0.00,,,0.00,WSDL version 420,2013-12-07 11:08:00,
2013-12-07 04:13:00,36.1,10.5,25.45,NNE,33,3.4,7.6,34,0.00,,,0.00,WSDL version 420,2013-12-07 11:13:00,
2013-12-07 04:18:00,36.1,10.7,25.45,NE,51,3.0,4.3,35,0.00,,,0.00,WSDL version 420,2013-12-07 11:18:00,
2013-12-07 04:23:00,36.1,12.4,25.43,NE,43,4.8,6.5,36,0.00,,,0.00,WSDL version 420,2013-12-07 11:23:00,
2013-12-07 04:28:00,36.0,11.6,25.43,NNE,28,2.2,6.5,36,0.00,,,0.00,WSDL version 420,2013-12-07 11:28:00,
2013-12-07 04:33:00,36.1,10.8,25.43,East,90,2.1,5.8,34,0.00,,,0.00,WSDL version 420,2013-12-07 11:33:00,
2013-12-07 04:38:00,35.9,10.2,25.43,SSE,152,3.1,5.8,34,0.00,,,0.00,WSDL version 420,2013-12-07 11:38:00,
2013-12-07 04:43:00,36.0,10.4,25.43,SE,132,1.8,5.8,34,0.00,,,0.00,WSDL version 420,2013-12-07 11:43:00,
2013-12-07 04:48:00,35.9,10.5,25.43,SW,228,0.9,3.1,34,0.00,,,0.00,WSDL version 420,2013-12-07 11:48:00,
2013-12-07 04:53:00,35.9,10.6,25.43,West,264,0.3,2.9,35,0.00,,,0.00,WSDL version 420,2013-12-07 11:53:00,
2013-12-07 04:58:00,35.8,10.7,25.43,NW,315,3.9,4.9,35,0.00,,,0.00,WSDL version 420,2013-12-07 11:58:00,
2013-12-07 05:03:00,35.8,10.2,25.43,WNW,295,3.9,4.9,34,0.00,,,0.00,WSDL version 420,2013-12-07 12:03:00,
2013-12-07 05:08:00,35.8,10.8,25.43,NNE,13,4.2,5.8,36,0.00,,,0.00,WSDL version 420,2013-12-07 12:08:00,
2013-12-07 05:13:00,35.8,12.4,25.43,NE,35,4.6,7.4,40,0.00,,,0.00,WSDL version 420,2013-12-07 12:13:00,
2013-12-07 05:18:00,35.8,13.8,25.43,NE,35,5.4,7.4,40,0.00,,,0.00,WSDL version 420,2013-12-07 12:18:00,
2013-12-07 05:23:00,35.6,13.8,25.45,NE,39,4.7,7.2,40,0.00,,,0.00,WSDL version 420,2013-12-07 12:23:00,
2013-12-07 05:28:00,35.6,13.6,25.45,ENE,60,5.0,7.2,39,0.00,,,0.00,WSDL version 420,2013-12-07 12:28:00,
2013-12-07 05:33:00,35.6,13.7,25.45,NE,45,3.6,6.5,40,0.00,,,0.00,WSDL version 420,2013-12-07 12:33:00,
2013-12-07 05:38:00,35.5,13.7,25.45,NE,51,4.1,6.5,40,0.00,,,0.00,WSDL version 420,2013-12-07 12:38:00,
2013-12-07 05:43:00,35.5,13.7,25.45,NE,55,4.5,6.7,40,0.00,,,0.00,WSDL version 420,2013-12-07 12:43:00,
2013-12-07 05:48:00,35.4,13.9,25.45,NNE,32,3.1,6.7,40,0.00,,,0.00,WSDL version 420,2013-12-07 12:48:00,
2013-12-07 05:53:00,35.4,13.4,25.45,ENE,58,3.1,5.8,40,0.00,,,0.00,WSDL version 420,2013-12-07 12:53:00,
2013-12-07 05:58:00,35.4,13.6,25.45,NE,55,3.1,5.8,40,0.00,,,0.00,WSDL version 420,2013-12-07 12:58:00,
2013-12-07 06:03:00,35.2,13.3,25.45,NNE,25,0.5,4.7,40,0.00,,,0.00,WSDL version 420,2013-12-07 13:03:00,
2013-12-07 06:08:00,35.4,13.5,25.45,ENE,68,0.8,4.7,40,0.00,,,0.00,WSDL version 420,2013-12-07 13:08:00,
2013-12-07 06:13:00,35.4,13.6,25.45,North,360,1.8,4.0,41,0.00,,,0.00,WSDL version 420,2013-12-07 13:13:00,
2013-12-07 06:18:00,35.4,14.1,25.45,NNE,30,3.2,3.8,41,0.00,,,0.00,WSDL version 420,2013-12-07 13:18:00,
2013-12-07 06:23:00,35.3,13.8,25.45,ENE,70,2.9,4.3,41,0.00,,,0.00,WSDL version 420,2013-12-07 13:23:00,
2013-12-07 06:28:00,35.4,13.5,25.45,NE,45,1.1,4.3,40,0.00,,,0.00,WSDL version 420,2013-12-07 13:28:00,
2013-12-07 06:33:00,35.3,13.7,25.45,NE,55,2.5,3.8,40,0.00,,,0.00,WSDL version 420,2013-12-07 13:33:00,
2013-12-07 06:38:00,35.1,13.2,25.45,NE,53,2.5,3.8,40,0.00,,,0.00,WSDL version 420,2013-12-07 13:38:00,
2013-12-07 06:43:00,35.3,13.4,25.45,NNE,18,2.0,3.6,40,0.00,,,0.00,WSDL version 420,2013-12-07 13:43:00,
2013-12-07 06:48:00,-999.0,-99.9,25.45,North,11,1.7,3.6,-999,0.00,,,0.00,WSDL version 420,2013-12-07 13:48:00,
2013-12-07 06:53:00,-999.0,-99.9,25.45,North,360,3.6,5.6,-999,0.00,,,0.00,WSDL version 420,2013-12-07 13:53:00,
2013-12-07 06:58:00,35.1,13.9,25.45,North,357,3.6,5.8,41,0.00,,,0.00,WSDL version 420,2013-12-07 13:58:00,
2013-12-07 07:03:00,-999.0,-99.9,25.45,NNE,31,4.2,5.8,-999,0.00,,,0.00,WSDL version 420,2013-12-07 14:03:00,
2013-12-07 07:08:00,35.1,13.7,25.45,NE,37,4.1,5.6,41,0.00,,,0.00,WSDL version 420,2013-12-07 14:08:00,
2013-12-07 07:13:00,34.9,13.8,25.45,NE,48,2.6,5.8,42,0.00,,,0.00,WSDL version 420,2013-12-07 14:13:00,
2013-12-07 07:18:00,34.9,13.7,25.45,NE,40,3.0,5.8,41,0.00,,,0.00,WSDL version 420,2013-12-07 14:18:00,
2013-12-07 07:23:00,34.8,13.5,25.48,ENE,62,2.2,4.7,41,0.00,,,0.00,WSDL version 420,2013-12-07 14:23:00,
2013-12-07 07:28:00,34.8,13.5,25.48,NE,43,2.4,3.8,41,0.00,,,0.00,WSDL version 420,2013-12-07 14:28:00,
2013-12-07 07:33:00,34.9,13.6,25.48,NE,56,2.5,3.8,41,0.00,,,0.00,WSDL version 420,2013-12-07 14:33:00,
2013-12-07 07:38:00,34.8,13.5,25.45,ENE,68,2.2,3.4,41,0.00,,,0.00,WSDL version 420,2013-12-07 14:38:00,
2013-12-07 07:43:00,35.1,13.8,25.45,NE,45,0.3,3.1,41,0.00,,,0.00,WSDL version 420,2013-12-07 14:43:00,
2013-12-07 07:48:00,35.4,14.0,25.45,ENE,68,0.3,3.1,41,0.00,,,0.00,WSDL version 420,2013-12-07 14:48:00,
2013-12-07 07:53:00,35.6,14.2,25.48,ENE,68,0.0,3.1,41,0.00,,,0.00,WSDL version 420,2013-12-07 14:53:00,
2013-12-07 07:58:00,35.8,15.0,25.48,North,3,3.2,4.3,43,0.00,,,0.00,WSDL version 420,2013-12-07 14:58:00,
2013-12-07 08:03:00,36.2,16.1,25.48,NE,40,4.3,6.0,44,0.00,,,0.00,WSDL version 420,2013-12-07 15:03:00,
2013-12-07 08:08:00,36.4,16.3,25.48,NE,42,2.3,6.0,43,0.00,,,0.00,WSDL version 420,2013-12-07 15:08:00,
2013-12-07 08:13:00,36.8,16.5,25.48,NNE,31,2.2,4.7,43,0.00,,,0.00,WSDL version 420,2013-12-07 15:13:00,
2013-12-07 08:18:00,37.0,16.8,25.48,NNE,28,3.3,4.9,43,0.00,,,0.00,WSDL version 420,2013-12-07 15:18:00,
2013-12-07 08:23:00,37.3,16.8,25.45,NE,39,3.0,5.8,42,0.00,,,0.00,WSDL version 420,2013-12-07 15:23:00,
2013-12-07 08:28:00,37.6,16.9,25.45,NNE,23,1.4,5.8,42,0.00,,,0.00,WSDL version 420,2013-12-07 15:28:00,
2013-12-07 08:33:00,37.7,16.7,25.45,North,357,1.1,5.6,42,0.00,,,0.00,WSDL version 420,2013-12-07 15:33:00,
2013-12-07 08:38:00,38.0,17.0,25.45,WNW,293,2.2,3.4,42,0.00,,,0.00,WSDL version 420,2013-12-07 15:38:00,
2013-12-07 08:43:00,38.3,17.2,25.45,WNW,287,2.2,3.8,42,0.00,,,0.00,WSDL version 420,2013-12-07 15:43:00,
2013-12-07 08:48:00,38.6,17.5,25.45,NW,305,2.5,4.9,42,0.00,,,0.00,WSDL version 420,2013-12-07 15:48:00,
2013-12-07 08:53:00,38.8,17.5,25.45,WNW,284,2.3,4.9,41,0.00,,,0.00,WSDL version 420,2013-12-07 15:53:00,
2013-12-07 08:58:00,38.8,17.2,25.45,North,5,2.0,4.3,42,0.00,,,0.00,WSDL version 420,2013-12-07 15:58:00,
2013-12-07 09:03:00,39.1,17.5,25.45,SE,138,7.0,8.7,41,0.00,,,0.00,WSDL version 420,2013-12-07 16:03:00,
2013-12-07 09:08:00,39.4,18.1,25.45,SE,138,10.0,13.2,43,0.00,,,0.00,WSDL version 420,2013-12-07 16:08:00,
2013-12-07 09:13:00,39.8,18.6,25.45,SE,146,9.1,13.2,42,0.00,,,0.00,WSDL version 420,2013-12-07 16:13:00,
2013-12-07 09:18:00,40.2,18.9,25.45,SE,145,7.9,10.7,42,0.00,,,0.00,WSDL version 420,2013-12-07 16:18:00,
2013-12-07 09:23:00,40.5,19.2,25.48,SSE,148,9.4,13.2,42,0.00,,,0.00,WSDL version 420,2013-12-07 16:23:00,
2013-12-07 09:28:00,40.7,19.0,25.48,SSE,153,9.3,13.2,41,0.00,,,0.00,WSDL version 420,2013-12-07 16:28:00,
2013-12-07 09:33:00,40.9,18.9,25.48,SE,143,9.4,13.4,40,0.00,,,0.00,WSDL version 420,2013-12-07 16:33:00,
2013-12-07 09:38:00,41.1,18.7,25.45,SSE,148,9.9,14.8,41,0.00,,,0.00,WSDL version 420,2013-12-07 16:38:00,
2013-12-07 09:43:00,41.4,19.5,25.45,SSE,158,13.2,17.7,41,0.00,,,0.00,WSDL version 420,2013-12-07 16:43:00,
2013-12-07 09:48:00,41.6,19.4,25.45,SSE,160,11.2,17.7,41,0.00,,,0.00,WSDL version 420,2013-12-07 16:48:00,
2013-12-07 09:53:00,41.8,19.9,25.45,SSE,152,12.3,17.7,41,0.00,,,0.00,WSDL version 420,2013-12-07 16:53:00,
2013-12-07 09:58:00,42.0,19.9,25.45,SSE,163,12.0,17.7,41,0.00,,,0.00,WSDL version 420,2013-12-07 16:58:00,
2013-12-07 10:03:00,42.3,20.0,25.45,SSE,165,13.1,17.7,41,0.00,,,0.00,WSDL version 420,2013-12-07 17:03:00,
2013-12-07 10:08:00,42.4,19.9,25.45,SSE,163,12.2,19.0,40,0.00,,,0.00,WSDL version 420,2013-12-07 17:08:00,
2013-12-07 10:13:00,42.5,19.9,25.45,SSE,160,13.2,19.9,40,0.00,,,0.00,WSDL version 420,2013-12-07 17:13:00,
2013-12-07 10:18:00,42.8,20.2,25.45,South,172,13.4,19.9,40,0.00,,,0.00,WSDL version 420,2013-12-07 17:18:00,
2013-12-07 10:23:00,42.9,20.2,25.45,SSE,152,12.1,19.5,40,0.00,,,0.00,WSDL version 420,2013-12-07 17:23:00,
2013-12-07 10:28:00,43.0,19.7,25.45,SSE,163,12.8,17.4,39,0.00,,,0.00,WSDL version 420,2013-12-07 17:28:00,
2013-12-07 10:33:00,43.0,19.7,25.45,SSE,158,13.7,17.7,39,0.00,,,0.00,WSDL version 420,2013-12-07 17:33:00,
2013-12-07 10:38:00,43.0,19.7,25.45,SSE,161,14.0,19.2,39,0.00,,,0.00,WSDL version 420,2013-12-07 17:38:00,
2013-12-07 10:43:00,42.8,19.6,25.45,SSE,160,13.5,19.2,39,0.00,,,0.00,WSDL version 420,2013-12-07 17:43:00,
2013-12-07 10:48:00,42.9,19.7,25.45,SSE,149,14.2,17.9,39,0.00,,,0.00,WSDL version 420,2013-12-07 17:48:00,
2013-12-07 10:53:00,42.9,19.7,25.45,SSE,152,13.2,17.9,39,0.00,,,0.00,WSDL version 420,2013-12-07 17:53:00,
2013-12-07 10:58:00,43.0,19.7,25.45,SSE,150,12.6,19.0,39,0.00,,,0.00,WSDL version 420,2013-12-07 17:58:00,
2013-12-07 11:03:00,43.1,19.8,25.45,SSE,160,12.8,19.0,39,0.00,,,0.00,WSDL version 420,2013-12-07 18:03:00,
2013-12-07 11:08:00,43.3,20.0,25.45,SSE,155,14.0,17.7,39,0.00,,,0.00,WSDL version 420,2013-12-07 18:08:00,
2013-12-07 11:13:00,43.4,20.1,25.45,SSE,148,12.0,17.7,39,0.00,,,0.00,WSDL version 420,2013-12-07 18:13:00,
2013-12-07 11:18:00,43.6,20.3,25.45,South,169,11.6,15.9,39,0.00,,,0.00,WSDL version 420,2013-12-07 18:18:00,
2013-12-07 11:23:00,43.8,20.5,25.45,SSE,160,12.9,17.0,39,0.00,,,0.00,WSDL version 420,2013-12-07 18:23:00,
2013-12-07 11:28:00,44.0,20.6,25.45,SSE,165,11.5,18.6,39,0.00,,,0.00,WSDL version 420,2013-12-07 18:28:00,
2013-12-07 11:33:00,44.1,20.5,25.45,SSE,168,11.5,18.6,39,0.00,,,0.00,WSDL version 420,2013-12-07 18:33:00,
2013-12-07 11:38:00,44.1,20.2,25.45,SSE,160,12.5,18.6,38,0.00,,,0.00,WSDL version 420,2013-12-07 18:38:00,
2013-12-07 11:43:00,44.3,20.3,25.45,South,175,6.8,18.6,38,0.00,,,0.00,WSDL version 420,2013-12-07 18:43:00,
2013-12-07 11:48:00,44.6,20.6,25.45,South,170,8.3,17.7,38,0.00,,,0.00,WSDL version 420,2013-12-07 18:48:00,
2013-12-07 11:53:00,44.7,20.7,25.43,SSW,200,6.8,16.8,38,0.00,,,0.00,WSDL version 420,2013-12-07 18:53:00,
2013-12-07 11:58:00,44.8,20.7,25.43,South,185,8.1,15.2,38,0.00,,,0.00,WSDL version 420,2013-12-07 18:58:00,
2013-12-07 12:03:00,44.9,20.9,25.43,South,174,6.7,13.6,38,0.00,,,0.00,WSDL version 420,2013-12-07 19:03:00,
2013-12-07 12:08:00,45.1,21.0,25.43,South,180,10.1,16.6,38,0.00,,,0.00,WSDL version 420,2013-12-07 19:08:00,
2013-12-07 12:13:00,45.1,21.1,25.43,South,173,10.5,16.6,38,0.00,,,0.00,WSDL version 420,2013-12-07 19:13:00,
2013-12-07 12:18:00,45.1,20.5,25.43,SSE,160,9.4,15.4,37,0.00,,,0.00,WSDL version 420,2013-12-07 19:18:00,
2013-12-07 12:23:00,45.1,20.9,25.40,South,183,12.2,17.4,38,0.00,,,0.00,WSDL version 420,2013-12-07 19:23:00,
2013-12-07 12:28:00,45.1,20.5,25.40,SSE,167,9.4,22.8,38,0.00,,,0.00,WSDL version 420,2013-12-07 19:28:00,
2013-12-07 12:33:00,45.1,20.8,25.40,SSE,152,11.7,22.8,38,0.00,,,0.00,WSDL version 420,2013-12-07 19:33:00,
2013-12-07 12:38:00,45.1,20.6,25.40,South,169,7.0,17.2,38,0.00,,,0.00,WSDL version 420,2013-12-07 19:38:00,
2013-12-07 12:43:00,45.1,20.7,25.40,South,170,13.6,22.1,37,0.00,,,0.00,WSDL version 420,2013-12-07 19:43:00,
2013-12-07 12:48:00,45.0,20.4,25.40,SSE,149,14.0,22.1,37,0.00,,,0.00,WSDL version 420,2013-12-07 19:48:00,
2013-12-07 12:53:00,44.8,20.4,25.40,SSE,150,12.6,18.8,37,0.00,,,0.00,WSDL version 420,2013-12-07 19:53:00,
2013-12-07 12:58:00,44.7,20.4,25.40,SSW,203,14.7,19.9,37,0.00,,,0.00,WSDL version 420,2013-12-07 19:58:00,
2013-12-07 13:03:00,44.6,20.4,25.40,South,191,13.4,22.1,38,0.00,,,0.00,WSDL version 420,2013-12-07 20:03:00,
2013-12-07 13:08:00,44.4,20.4,25.37,South,175,10.2,22.1,38,0.00,,,0.00,WSDL version 420,2013-12-07 20:08:00,
2013-12-07 13:13:00,44.2,20.2,25.37,SW,214,9.2,15.7,38,0.00,,,0.00,WSDL version 420,2013-12-07 20:13:00,
2013-12-07 13:18:00,44.2,20.2,25.37,South,188,13.3,17.7,38,0.00,,,0.00,WSDL version 420,2013-12-07 20:18:00,
2013-12-07 13:23:00,44.1,20.1,25.37,SW,225,8.0,17.7,38,0.00,,,0.00,WSDL version 420,2013-12-07 20:23:00,
2013-12-07 13:28:00,44.0,20.0,25.37,SSE,155,8.5,12.1,38,0.00,,,0.00,WSDL version 420,2013-12-07 20:28:00,
2013-12-07 13:33:00,43.7,19.8,25.37,SW,218,9.0,13.2,38,0.00,,,0.00,WSDL version 420,2013-12-07 20:33:00,
2013-12-07 13:38:00,43.7,19.8,25.37,South,188,8.2,17.7,38,0.00,,,0.00,WSDL version 420,2013-12-07 20:38:00,
2013-12-07 13:43:00,43.5,19.6,25.37,SW,214,6.3,17.7,38,0.00,,,0.00,WSDL version 420,2013-12-07 20:43:00,
2013-12-07 13:48:00,43.4,19.5,25.37,South,183,9.0,16.6,38,0.00,,,0.00,WSDL version 420,2013-12-07 20:48:00,
2013-12-07 13:53:00,43.3,19.4,25.37,ESE,113,8.8,14.3,38,0.00,,,0.00,WSDL version 420,2013-12-07 20:53:00,
2013-12-07 13:58:00,43.3,19.5,25.37,South,190,9.4,15.7,38,0.00,,,0.00,WSDL version 420,2013-12-07 20:58:00,
2013-12-07 14:03:00,43.2,19.3,25.37,South,191,7.8,15.7,38,0.00,,,0.00,WSDL version 420,2013-12-07 21:03:00,
2013-12-07 14:08:00,43.0,19.1,25.37,SSW,208,6.0,13.9,38,0.00,,,0.00,WSDL version 420,2013-12-07 21:08:00,
2013-12-07 14:13:00,43.1,19.2,25.37,NE,34,6.3,11.0,38,0.00,,,0.00,WSDL version 420,2013-12-07 21:13:00,
2013-12-07 14:18:00,43.3,19.4,25.37,SSW,197,8.6,13.2,38,0.00,,,0.00,WSDL version 420,2013-12-07 21:18:00,
2013-12-07 14:23:00,43.3,19.4,25.37,South,186,5.1,13.2,38,0.00,,,0.00,WSDL version 420,2013-12-07 21:23:00,
2013-12-07 14:28:00,43.3,19.4,25.37,South,183,5.9,12.8,38,0.00,,,0.00,WSDL version 420,2013-12-07 21:28:00,
2013-12-07 14:33:00,43.4,19.5,25.37,SW,225,8.0,13.2,38,0.00,,,0.00,WSDL version 420,2013-12-07 21:33:00,
2013-12-07 14:38:00,43.5,19.6,25.37,SW,222,5.5,13.2,38,0.00,,,0.00,WSDL version 420,2013-12-07 21:38:00,
2013-12-07 14:43:00,43.5,19.6,25.37,SSW,209,4.8,8.7,38,0.00,,,0.00,WSDL version 420,2013-12-07 21:43:00,
2013-12-07 14:48:00,43.5,19.5,25.37,SW,231,4.4,8.1,37,0.00,,,0.00,WSDL version 420,2013-12-07 21:48:00,
2013-12-07 14:53:00,43.5,19.0,25.37,SW,222,3.7,9.8,37,0.00,,,0.00,WSDL version 420,2013-12-07 21:53:00,
2013-12-07 14:58:00,43.5,19.4,25.37,South,188,9.1,11.2,38,0.00,,,0.00,WSDL version 420,2013-12-07 21:58:00,
2013-12-07 15:03:00,43.5,19.6,25.37,SSW,211,3.9,11.2,38,0.00,,,0.00,WSDL version 420,2013-12-07 22:03:00,
2013-12-07 15:08:00,43.5,19.2,25.34,South,170,6.7,10.3,38,0.00,,,0.00,WSDL version 420,2013-12-07 22:08:00,
2013-12-07 15:13:00,43.4,19.4,25.34,SW,219,4.9,10.3,38,0.00,,,0.00,WSDL version 420,2013-12-07 22:13:00,
2013-12-07 15:18:00,43.4,19.4,25.34,SSW,198,4.6,8.5,38,0.00,,,0.00,WSDL version 420,2013-12-07 22:18:00,
2013-12-07 15:23:00,43.5,19.2,25.34,SSE,160,5.0,8.5,38,0.00,,,0.00,WSDL version 420,2013-12-07 22:23:00,
2013-12-07 15:28:00,43.5,19.3,25.34,South,174,4.6,8.5,37,0.00,,,0.00,WSDL version 420,2013-12-07 22:28:00,
2013-12-07 15:33:00,43.5,19.1,25.34,SSW,208,6.4,9.4,37,0.00,,,0.00,WSDL version 420,2013-12-07 22:33:00,
2013-12-07 15:38:00,43.5,18.7,25.34,South,172,6.3,9.4,36,0.00,,,0.00,WSDL version 420,2013-12-07 22:38:00,
2013-12-07 15:43:00,43.7,19.1,25.34,SSW,203,6.1,8.9,38,0.00,,,0.00,WSDL version 420,2013-12-07 22:43:00,
2013-12-07 15:48:00,43.5,18.4,25.34,SSE,155,4.4,8.1,36,0.00,,,0.00,WSDL version 420,2013-12-07 22:48:00,
2013-12-07 15:53:00,43.5,18.2,25.34,SSE,160,6.0,12.3,36,0.00,,,0.00,WSDL version 420,2013-12-07 22:53:00,
2013-12-07 15:58:00,43.5,18.0,25.34,East,88,5.5,12.3,36,0.00,,,0.00,WSDL version 420,2013-12-07 22:58:00,
2013-12-07 16:03:00,43.5,18.2,25.34,South,180,4.3,10.5,36,0.00,,,0.00,WSDL version 420,2013-12-07 23:03:00,
2013-12-07 16:08:00,43.4,17.9,25.34,SSW,205,3.2,7.6,35,0.00,,,0.00,WSDL version 420,2013-12-07 23:08:00,
2013-12-07 16:13:00,43.4,17.6,25.34,SW,231,3.2,5.8,35,0.00,,,0.00,WSDL version 420,2013-12-07 23:13:00,
2013-12-07 16:18:00,43.3,17.5,25.34,SSW,198,2.5,5.6,35,0.00,,,0.00,WSDL version 420,2013-12-07 23:18:00,
2013-12-07 16:23:00,43.3,17.6,25.37,SSW,200,1.9,3.6,35,0.00,,,0.00,WSDL version 420,2013-12-07 23:23:00,
2013-12-07 16:28:00,43.3,17.9,25.37,SW,215,2.5,4.0,36,0.00,,,0.00,WSDL version 420,2013-12-07 23:28:00,
2013-12-07 16:33:00,43.3,18.0,25.37,SSW,208,3.6,5.6,35,0.00,,,0.00,WSDL version 420,2013-12-07 23:33:00,
2013-12-07 16:38:00,43.3,17.9,25.37,West,259,3.0,6.0,35,0.00,,,0.00,WSDL version 420,2013-12-07 23:38:00,
2013-12-07 16:43:00,43.3,17.5,25.37,South,183,2.7,6.0,35,0.00,,,0.00,WSDL version 420,2013-12-07 23:43:00,
2013-12-07 16:48:00,43.3,17.9,25.37,South,183,2.8,6.7,36,0.00,,,0.00,WSDL version 420,2013-12-07 23:48:00,
2013-12-07 16:53:00,43.2,18.0,25.34,SSE,168,6.3,8.5,36,0.00,,,0.00,WSDL version 420,2013-12-07 23:53:00,
2013-12-07 16:58:00,43.0,17.6,25.34,SSE,155,6.9,8.7,35,0.00,,,0.00,WSDL version 420,2013-12-07 23:58:00,
2013-12-07 17:03:00,42.8,17.4,25.34,SSE,165,5.9,8.7,35,0.00,,,0.00,WSDL version 420,2013-12-08 00:03:00,
2013-12-07 17:08:00,42.8,17.0,25.34,South,183,4.3,7.4,35,0.00,,,0.00,WSDL version 420,2013-12-08 00:08:00,
2013-12-07 17:13:00,42.7,17.5,25.34,SE,146,6.9,8.5,36,0.00,,,0.00,WSDL version 420,2013-12-08 00:13:00,
2013-12-07 17:18:00,42.6,17.5,25.34,SE,130,6.6,8.5,36,0.00,,,0.00,WSDL version 420,2013-12-08 00:18:00,
2013-12-07 17:23:00,42.6,17.5,25.34,SE,135,5.1,7.8,36,0.00,,,0.00,WSDL version 420,2013-12-08 00:23:00,
2013-12-07 17:28:00,42.4,17.4,25.34,SE,135,4.9,6.5,36,0.00,,,0.00,WSDL version 420,2013-12-08 00:28:00,
2013-12-07 17:33:00,42.4,16.8,25.34,SE,143,5.3,6.5,36,0.00,,,0.00,WSDL version 420,2013-12-08 00:33:00,
2013-12-07 17:38:00,42.3,17.2,25.34,SE,145,5.9,6.9,36,0.00,,,0.00,WSDL version 420,2013-12-08 00:38:00,
2013-12-07 17:43:00,42.3,17.2,25.34,SSE,153,6.6,7.4,36,0.00,,,0.00,WSDL version 420,2013-12-08 00:43:00,
2013-12-07 17:48:00,42.3,17.2,25.34,SSE,152,6.9,8.7,36,0.00,,,0.00,WSDL version 420,2013-12-08 00:48:00,
2013-12-07 17:53:00,-999.0,-99.9,25.34,SSE,158,6.4,9.6,-999,0.00,,,0.00,WSDL version 420,2013-12-08 00:53:00,
2013-12-07 17:58:00,-999.0,-99.9,25.34,SSE,152,7.0,9.6,-999,0.00,,,0.00,WSDL version 420,2013-12-08 00:58:00,
2013-12-07 18:03:00,-999.0,-99.9,25.34,SSE,158,6.5,8.7,-999,0.00,,,0.00,WSDL version 420,2013-12-08 01:03:00,
2013-12-07 18:08:00,-999.0,-99.9,25.34,SSE,158,7.2,8.7,-999,0.00,,,0.00,WSDL version 420,2013-12-08 01:08:00,
2013-12-07 18:13:00,41.9,17.5,25.34,SSE,155,7.6,8.7,37,0.00,,,0.00,WSDL version 420,2013-12-08 01:13:00,
2013-12-07 18:18:00,42.1,18.3,25.34,SE,138,7.3,8.7,38,0.00,,,0.00,WSDL version 420,2013-12-08 01:18:00,
2013-12-07 18:23:00,42.1,18.3,25.37,SE,138,7.2,8.7,38,0.00,,,0.00,WSDL version 420,2013-12-08 01:23:00,
2013-12-07 18:28:00,42.1,18.3,25.37,SE,135,6.9,8.7,38,0.00,,,0.00,WSDL version 420,2013-12-08 01:28:00,
2013-12-07 18:33:00,42.1,18.3,25.37,SE,138,6.7,8.5,38,0.00,,,0.00,WSDL version 420,2013-12-08 01:33:00,
2013-12-07 18:38:00,42.1,18.3,25.34,SE,135,6.7,8.1,38,0.00,,,0.00,WSDL version 420,2013-12-08 01:38:00,
2013-12-07 18:43:00,42.1,17.8,25.34,SE,135,7.1,8.9,38,0.00,,,0.00,WSDL version 420,2013-12-08 01:43:00,
2013-12-07 18:48:00,42.1,18.2,25.34,SE,133,6.4,8.9,38,0.00,,,0.00,WSDL version 420,2013-12-08 01:48:00,
2013-12-07 18:53:00,42.1,17.7,25.34,SE,140,5.9,7.6,37,0.00,,,0.00,WSDL version 420,2013-12-08 01:53:00,
2013-12-07 18:58:00,42.1,17.7,25.34,SE,138,6.1,7.4,37,0.00,,,0.00,WSDL version 420,2013-12-08 01:58:00,
2013-12-07 19:03:00,42.1,18.2,25.34,SE,145,7.1,7.8,38,0.00,,,0.00,WSDL version 420,2013-12-08 02:03:00,
2013-12-07 19:08:00,42.1,18.2,25.34,SE,138,6.5,7.8,37,0.00,,,0.00,WSDL version 420,2013-12-08 02:08:00,
2013-12-07 19:13:00,42.3,18.1,25.34,SSE,155,6.9,7.8,37,0.00,,,0.00,WSDL version 420,2013-12-08 02:13:00,
2013-12-07 19:18:00,42.2,17.9,25.34,SSE,152,6.5,7.8,37,0.00,,,0.00,WSDL version 420,2013-12-08 02:18:00,
2013-12-07 19:23:00,42.1,17.4,25.34,SSE,165,5.9,7.8,36,0.00,,,0.00,WSDL version 420,2013-12-08 02:23:00,
2013-12-07 19:28:00,42.1,17.2,25.34,SSW,203,4.3,7.6,36,0.00,,,0.00,WSDL version 420,2013-12-08 02:28:00,
2013-12-07 19:33:00,41.9,17.3,25.34,WSW,239,3.1,6.5,36,0.00,,,0.00,WSDL version 420,2013-12-08 02:33:00,
2013-12-07 19:38:00,41.7,17.0,25.34,SSW,208,2.6,4.9,37,0.00,,,0.00,WSDL version 420,2013-12-08 02:38:00,
2013-12-07 19:43:00,41.5,17.2,25.34,SSW,210,2.0,4.3,37,0.00,,,0.00,WSDL version 420,2013-12-08 02:43:00,
2013-12-07 19:48:00,41.4,16.8,25.34,SW,233,1.9,3.6,37,0.00,,,0.00,WSDL version 420,2013-12-08 02:48:00,
2013-12-07 19:53:00,40.7,16.1,25.34,SSW,205,2.2,3.6,36,0.00,,,0.00,WSDL version 420,2013-12-08 02:53:00,
2013-12-07 19:58:00,40.4,15.8,25.34,SSW,203,2.2,3.6,36,0.00,,,0.00,WSDL version 420,2013-12-08 02:58:00,
2013-12-07 20:03:00,40.2,16.1,25.34,SW,220,3.3,4.0,38,0.00,,,0.00,WSDL version 420,2013-12-08 03:03:00,
2013-12-07 20:08:00,39.9,16.4,25.37,WSW,245,1.5,4.3,38,0.00,,,0.00,WSDL version 420,2013-12-08 03:08:00,
2013-12-07 20:13:00,39.9,16.5,25.37,SSE,163,4.7,5.8,38,0.00,,,0.00,WSDL version 420,2013-12-08 03:13:00,
2013-12-07 20:18:00,40.0,17.1,25.37,South,183,4.1,6.0,39,0.00,,,0.00,WSDL version 420,2013-12-08 03:18:00,
2013-12-07 20:23:00,40.1,17.2,25.34,South,173,7.1,8.7,39,0.00,,,0.00,WSDL version 420,2013-12-08 03:23:00,
2013-12-07 20:28:00,40.2,17.2,25.34,SSE,164,6.5,8.7,39,0.00,,,0.00,WSDL version 420,2013-12-08 03:28:00,
2013-12-07 20:33:00,40.5,17.8,25.34,South,172,6.4,8.5,40,0.00,,,0.00,WSDL version 420,2013-12-08 03:33:00,
2013-12-07 20:38:00,40.6,18.2,25.37,South,190,6.2,7.8,40,0.00,,,0.00,WSDL version 420,2013-12-08 03:38:00,
2013-12-07 20:43:00,40.7,17.7,25.37,SSE,160,5.3,7.4,39,0.00,,,0.00,WSDL version 420,2013-12-08 03:43:00,
2013-12-07 20:48:00,40.9,17.8,25.37,SSE,158,6.8,8.5,39,0.00,,,0.00,WSDL version 420,2013-12-08 03:48:00,
2013-12-07 20:53:00,41.0,17.9,25.37,South,172,6.2,8.7,39,0.00,,,0.00,WSDL version 420,2013-12-08 03:53:00,
2013-12-07 20:58:00,41.0,17.9,25.37,SSE,163,6.8,8.7,39,0.00,,,0.00,WSDL version 420,2013-12-08 03:58:00,
2013-12-07 21:03:00,41.1,18.0,25.37,SSE,155,9.2,12.5,39,0.00,,,0.00,WSDL version 420,2013-12-08 04:03:00,
2013-12-07 21:08:00,41.2,18.1,25.37,SSE,153,10.1,13.2,39,0.00,,,0.00,WSDL version 420,2013-12-08 04:08:00,
2013-12-07 21:13:00,41.4,18.3,25.37,SE,143,10.7,14.1,39,0.00,,,0.00,WSDL version 420,2013-12-08 04:13:00,
2013-12-07 21:18:00,41.7,18.2,25.37,SSE,152,11.5,14.8,38,0.00,,,0.00,WSDL version 420,2013-12-08 04:18:00,
2013-12-07 21:23:00,41.7,18.0,25.37,SE,146,11.1,14.8,38,0.00,,,0.00,WSDL version 420,2013-12-08 04:23:00,
2013-12-07 21:28:00,41.7,18.0,25.37,SSE,152,8.4,14.5,38,0.00,,,0.00,WSDL version 420,2013-12-08 04:28:00,
2013-12-07 21:33:00,41.8,17.6,25.37,SSE,152,11.4,13.9,37,0.00,,,0.00,WSDL version 420,2013-12-08 04:33:00,
2013-12-07 21:38:00,42.0,17.3,25.37,SSE,152,11.4,16.8,36,0.00,,,0.00,WSDL version 420,2013-12-08 04:38:00,
2013-12-07 21:43:00,42.1,17.1,25.37,SSE,155,9.5,16.8,35,0.00,,,0.00,WSDL version 420,2013-12-08 04:43:00,
2013-12-07 21:48:00,42.1,16.7,25.37,SSE,155,10.0,13.2,36,0.00,,,0.00,WSDL version 420,2013-12-08 04:48:00,
2013-12-07 21:53:00,42.1,16.5,25.37,SSE,158,10.5,15.2,35,0.00,,,0.00,WSDL version 420,2013-12-08 04:53:00,
2013-12-07 21:58:00,42.1,16.1,25.37,SSE,160,10.7,15.2,34,0.00,,,0.00,WSDL version 420,2013-12-08 04:58:00,
2013-12-07 22:01:00,42.1,15.8,25.37,SSE,158,11.4,20.4,34,0.00,,,0.00,WSDL version 420,2013-12-08 05:01:00,
2013-12-07 22:02:00,42.2,15.8,25.37,SSE,158,12.5,20.4,34,0.00,,,0.00,WSDL version 420,2013-12-08 05:02:00,
2013-12-07 22:04:00,42.3,15.6,25.37,SSE,158,13.4,20.4,33,0.00,,,0.00,WSDL version 420,2013-12-08 05:04:00,
2013-12-07 22:09:00,42.3,15.2,25.37,SSE,158,13.0,20.4,33,0.00,,,0.00,WSDL version 420,2013-12-08 05:09:00,
2013-12-07 22:12:00,42.3,14.8,25.37,SSE,148,10.9,15.4,32,0.00,,,0.00,WSDL version 420,2013-12-08 05:12:00,
2013-12-07 22:17:00,42.3,14.5,25.37,South,172,10.2,16.1,32,0.00,,,0.00,WSDL version 420,2013-12-08 05:17:00,
2013-12-07 22:22:00,42.3,14.0,25.37,SSE,150,9.1,16.1,31,0.00,,,0.00,WSDL version 420,2013-12-08 05:22:00,
2013-12-07 22:27:00,42.4,13.9,25.37,SSE,158,11.1,19.2,31,0.00,,,0.00,WSDL version 420,2013-12-08 05:27:00,
2013-12-07 22:32:00,42.4,13.6,25.37,SSE,158,10.6,19.2,30,0.00,,,0.00,WSDL version 420,2013-12-08 05:32:00,
2013-12-07 22:37:00,42.4,13.2,25.37,SSE,149,9.2,17.0,30,0.00,,,0.00,WSDL version 420,2013-12-08 05:37:00,
2013-12-07 22:42:00,42.4,13.1,25.37,SE,143,9.2,17.0,30,0.00,,,0.00,WSDL version 420,2013-12-08 05:42:00,
2013-12-07 22:47:00,42.5,12.5,25.37,SSE,150,9.2,17.2,29,0.00,,,0.00,WSDL version 420,2013-12-08 05:47:00,
2013-12-07 22:52:00,42.4,12.4,25.34,SE,127,6.7,17.2,29,0.00,,,0.00,WSDL version 420,2013-12-08 05:52:00,
2013-12-07 22:57:00,42.6,12.5,25.34,SW,215,4.1,12.1,29,0.00,,,0.00,WSDL version 420,2013-12-08 05:57:00,
2013-12-07 23:02:00,42.6,12.6,25.34,SE,138,8.9,13.2,29,0.00,,,0.00,WSDL version 420,2013-12-08 06:02:00,
2013-12-07 23:07:00,42.4,12.4,25.34,SSE,160,7.8,13.2,29,0.00,,,0.00,WSDL version 420,2013-12-08 06:07:00,
2013-12-07 23:12:00,42.3,12.3,25.34,South,172,9.8,12.8,29,0.00,,,0.00,WSDL version 420,2013-12-08 06:12:00,
2013-12-07 23:17:00,42.3,12.3,25.34,SE,146,8.6,12.3,29,0.00,,,0.00,WSDL version 420,2013-12-08 06:17:00,
2013-12-07 23:22:00,42.1,12.2,25.34,SSE,160,8.5,12.3,29,0.00,,,0.00,WSDL version 420,2013-12-08 06:22:00,
2013-12-07 23:27:00,42.0,12.0,25.34,SE,138,8.9,12.3,29,0.00,,,0.00,WSDL version 420,2013-12-08 06:27:00,
2013-12-07 23:32:00,41.8,11.9,25.34,SSE,153,6.6,11.0,29,0.00,,,0.00,WSDL version 420,2013-12-08 06:32:00,
2013-12-07 23:37:00,41.8,11.9,25.34,SW,236,2.6,10.7,29,0.00,,,0.00,WSDL version 420,2013-12-08 06:37:00,
2013-12-07 23:42:00,41.9,12.0,25.34,SSE,158,6.1,12.3,29,0.00,,,0.00,WSDL version 420,2013-12-08 06:42:00,
2013-12-07 23:47:00,41.8,11.9,25.34,South,170,4.6,12.3,29,0.00,,,0.00,WSDL version 420,2013-12-08 06:47:00,
2013-12-07 23:52:00,41.7,11.5,25.34,SSE,149,4.9,12.3,28,0.00,,,0.00,WSDL version 420,2013-12-08 06:52:00,
2013-12-07 23:57:00,41.6,11.1,25.34,SE,138,6.4,13.2,28,0.00,,,0.00,WSDL version 420,2013-12-08 06:57:00,